Rawtenstall, United Kingdom
Current Conditions -  °F | °C
As of 9:50 AM on Thursday 29 Jan 2015 (Local Time) from EGCC Reporting Station
Moderate Snow Moderate Snow  
Wind Chill: 26°   Ceiling: 500
Heat Index: 32°   Visibility: 0.37mi
Dew Point: 32°   Wind: 6mph
Humidity: 100%   Direction: 270°W
Pressure: 28.97"   Gusts: NA
Location:  53.71°N, 2.24°W
Report Text: EGCC 290950Z 27005KT 230V320 0600 R23R/0900 SN SCT001TCU BKN005 OVC021 00/00 Q0981
Loading
Personal Weather Stations






























Interactive Weather Map New forecast layout! Learn more

10-Day Weather Forecast

Advertisements
Track Severe Weather on mobile